Wayne, NE

9:19 AM CST on February 27, 2017 (GMT -0600)
Wayne Municipal

Weather History for KLCG - May, 2013

Change the Weather History Date:

Tuesday, May 21, 2013

  Actual Average (KOFK) Record (KOFK)
Temperature  
Mean Temperature 55 °F -  
Max Temperature 59 °F 75 °F 93 °F (1970)
Min Temperature 51 °F 51 °F 29 °F (1931)
Degree Days  
Heating Degree Days 10    
Growing Degree Days 5 (Base 50)    
Moisture  
Dew Point 51 °F    
Average Humidity 85    
Maximum Humidity 95    
Minimum Humidity 71    
Precipitation  
Precipitation 0.01 in - - ()
Sea Level Pressure  
Sea Level Pressure 29.64 in    
Wind  
Wind Speed 15 mph (WNW)    
Max Wind Speed 25 mph    
Max Gust Speed 34 mph    
Visibility 9 miles    
Events Rain    
Averages and records for this station are not official NWS values.
T = Trace of Precipitation, MM = Missing Value Source: NWS Daily Summary

Daily Weather History Graph

Daily Weather History Graph

Search for Another Location

Airport or City:

Trip Planner

Search our weather history database for the weather conditions in past years. The results will help you decide how hot, cold, wet, or windy it might be!

Date:

Astronomy

May. 21, 2013 Rise Set
Actual Time 6:01 AM CDT 8:48 PM CDT
Civil Twilight 5:28 AM CDT 9:21 PM CDT
Nautical Twilight 4:47 AM CDT 10:02 PM CDT
Astronomical Twilight 3:59 AM CDT 10:50 PM CDT
Moon 4:59 PM CDT (5/21) 3:34 AM CDT (5/21)
Length of Visible Light 15h 53m
Length of Day
14h 47m
Waxing Gibbous, 84% of the Moon is Illuminated
May 21
Waxing Gibbous
May 24
Full
May 31
Last Quarter
Jun 8
New
Jun 16
First Quarter

Hourly Weather History & Observations

Time (CDT) Temp. Dew Point Humidity Pressure Visibility Wind Dir Wind Speed Gust Speed Precip Events Conditions
12:35 AM 57.4 °F 53.4 °F 87% 29.60 in 10.0 mi West 13.8 mph - N/A   Overcast
12:38 AM 57.2 °F 53.6 °F 88% 29.60 in 10.0 mi West 13.8 mph - N/A   Overcast
12:55 AM 57.4 °F 53.1 °F 85% 29.59 in 10.0 mi West 13.8 mph 18.4 mph N/A   Overcast
1:15 AM 57.2 °F 52.0 °F 83% 29.60 in 10.0 mi West 12.7 mph - N/A   Overcast
1:35 AM 57.2 °F 51.8 °F 82% 29.60 in 10.0 mi West 10.4 mph - N/A   Overcast
1:55 AM 56.3 °F 51.1 °F 83% 29.60 in 10.0 mi West 13.8 mph 20.7 mph N/A   Overcast
2:15 AM 56.3 °F 50.0 °F 79% 29.60 in 10.0 mi West 13.8 mph 18.4 mph N/A   Overcast
2:35 AM 56.3 °F 50.5 °F 81% 29.59 in 10.0 mi West 12.7 mph - N/A   Overcast
2:55 AM 56.1 °F 49.6 °F 79% 29.60 in 10.0 mi West 12.7 mph 18.4 mph N/A   Overcast
3:15 AM 55.6 °F 50.0 °F 81% 29.60 in 10.0 mi West 9.2 mph - N/A   Overcast
3:35 AM 55.9 °F 50.0 °F 80% 29.60 in 10.0 mi West 15.0 mph - N/A   Overcast
3:55 AM 55.4 °F 49.6 °F 81% 29.60 in 10.0 mi West 17.3 mph 24.2 mph N/A   Mostly Cloudy
4:15 AM 54.5 °F 50.2 °F 85% 29.60 in 10.0 mi West 10.4 mph 20.7 mph N/A   Mostly Cloudy
4:35 AM 54.5 °F 49.5 °F 83% 29.60 in 10.0 mi West 10.4 mph 15.0 mph N/A   Mostly Cloudy
4:55 AM 54.5 °F 49.1 °F 82% 29.61 in 10.0 mi West 13.8 mph 17.3 mph N/A   Mostly Cloudy
5:15 AM 54.1 °F 49.1 °F 83% 29.60 in 10.0 mi West 15.0 mph 23.0 mph N/A   Mostly Cloudy
5:35 AM 53.8 °F 48.4 °F 82% 29.61 in 10.0 mi West 16.1 mph 26.5 mph N/A   Overcast
5:55 AM 53.6 °F 48.2 °F 82% 29.61 in 10.0 mi West 13.8 mph - N/A   Mostly Cloudy
6:15 AM 53.6 °F 48.2 °F 82% 29.61 in 10.0 mi West 13.8 mph 20.7 mph N/A   Overcast
6:35 AM 53.6 °F 47.8 °F 81% 29.61 in 10.0 mi West 13.8 mph 19.6 mph N/A   Overcast
6:55 AM 53.6 °F 48.2 °F 82% 29.61 in 10.0 mi West 12.7 mph 18.4 mph N/A   Overcast
7:15 AM 53.8 °F 48.2 °F 81% 29.62 in 10.0 mi West 16.1 mph 20.7 mph N/A   Overcast
7:35 AM 54.1 °F 47.3 °F 78% 29.63 in 10.0 mi West 17.3 mph 27.6 mph N/A   Overcast
7:55 AM 54.5 °F 47.3 °F 77% 29.63 in 10.0 mi West 18.4 mph 21.9 mph N/A   Overcast
8:15 AM 54.5 °F 48.0 °F 79% 29.63 in 10.0 mi West 18.4 mph 24.2 mph N/A   Overcast
8:35 AM 54.9 °F 47.5 °F 76% 29.63 in 10.0 mi West 17.3 mph 25.3 mph N/A   Mostly Cloudy
8:55 AM 55.6 °F 49.1 °F 79% 29.64 in 10.0 mi West 20.7 mph 27.6 mph N/A   Mostly Cloudy
9:15 AM 55.9 °F 47.5 °F 73% 29.64 in 10.0 mi West 19.6 mph 27.6 mph N/A   Mostly Cloudy
9:35 AM 55.4 °F 49.3 °F 80% 29.64 in 10.0 mi West 17.3 mph 21.9 mph N/A   Mostly Cloudy
9:55 AM 56.7 °F 48.9 °F 75% 29.63 in 10.0 mi West 19.6 mph 25.3 mph N/A   Mostly Cloudy
10:15 AM 55.4 °F 48.2 °F 77% 29.63 in 7.0 mi West 19.6 mph 27.6 mph N/A   Overcast
10:35 AM 56.5 °F 49.3 °F 77% 29.63 in 10.0 mi West 19.6 mph 25.3 mph N/A   Overcast
10:55 AM 55.9 °F 48.2 °F 75% 29.63 in 10.0 mi West 17.3 mph 25.3 mph N/A   Overcast
11:15 AM 57.2 °F 48.0 °F 71% 29.63 in 10.0 mi West 21.9 mph 25.3 mph N/A   Overcast
11:35 AM 56.5 °F 47.8 °F 73% 29.63 in 10.0 mi WSW 19.6 mph - N/A   Overcast
11:55 AM 56.1 °F 48.2 °F 75% 29.63 in 10.0 mi West 17.3 mph 24.2 mph N/A   Overcast
12:15 PM 56.3 °F 49.5 °F 78% 29.63 in 10.0 mi WSW 18.4 mph 21.9 mph N/A   Overcast
12:35 PM 57.6 °F 50.0 °F 76% 29.62 in 10.0 mi West 16.1 mph 21.9 mph N/A   Overcast
12:55 PM 57.9 °F 51.1 °F 78% 29.61 in 10.0 mi West 18.4 mph 26.5 mph N/A   Overcast
1:15 PM 58.5 °F 52.3 °F 80% 29.61 in 7.0 mi West 15.0 mph - N/A   Overcast
1:35 PM 59.2 °F 53.8 °F 82% 29.62 in 7.0 mi West 16.1 mph 23.0 mph N/A   Overcast
1:55 PM 59.0 °F 53.8 °F 83% 29.63 in 7.0 mi West 15.0 mph 24.2 mph N/A   Overcast
2:15 PM 59.0 °F 54.0 °F 83% 29.64 in 10.0 mi West 13.8 mph 23.0 mph N/A   Overcast
2:35 PM 58.1 °F 55.6 °F 91% 29.64 in 2.0 mi West 11.5 mph - N/A Rain Light Rain
2:55 PM 58.6 °F 55.8 °F 90% 29.64 in 2.0 mi West 15.0 mph 21.9 mph N/A   Light Drizzle
3:15 PM 59.4 °F 55.6 °F 87% 29.64 in 4.0 mi West 18.4 mph 25.3 mph N/A   Overcast
3:35 PM 58.8 °F 56.8 °F 93% 29.64 in 2.0 mi West 13.8 mph - N/A   Light Drizzle
3:55 PM 58.8 °F 55.9 °F 90% 29.64 in 5.0 mi WNW 21.9 mph 27.6 mph N/A   Overcast
4:15 PM 59.2 °F 55.9 °F 89% 29.64 in 7.0 mi WNW 25.3 mph 32.2 mph N/A   Overcast
4:35 PM 59.4 °F 56.7 °F 91% 29.64 in 7.0 mi WNW 25.3 mph 31.1 mph N/A   Overcast
4:55 PM 58.6 °F 56.5 °F 93% 29.64 in 2.5 mi WNW 20.7 mph 28.8 mph N/A   Overcast
5:15 PM 57.6 °F 55.9 °F 94% 29.65 in 1.8 mi NW 20.7 mph 34.5 mph 0.01 in   Light Drizzle
5:35 PM 58.5 °F 55.4 °F 90% 29.65 in 7.0 mi NW 24.2 mph 28.8 mph 0.01 in   Overcast
5:55 PM 58.5 °F 54.9 °F 88% 29.66 in 10.0 mi NW 18.4 mph 27.6 mph 0.01 in   Overcast
6:15 PM 56.7 °F 54.5 °F 92% 29.66 in 3.0 mi NW 17.3 mph 26.5 mph N/A   Overcast
6:35 PM 56.3 °F 53.6 °F 91% 29.68 in 7.0 mi NW 18.4 mph 26.5 mph N/A   Overcast
6:55 PM 56.3 °F 52.7 °F 88% 29.69 in 10.0 mi NW 15.0 mph 25.3 mph N/A   Overcast
7:15 PM 54.7 °F 52.7 °F 93% 29.71 in 2.5 mi NW 15.0 mph 21.9 mph N/A   Overcast
7:35 PM 54.5 °F 52.2 °F 92% 29.71 in 10.0 mi NW 16.1 mph 24.2 mph N/A   Overcast
7:55 PM 54.1 °F 52.0 °F 92% 29.72 in 7.0 mi NW 17.3 mph 26.5 mph N/A   Overcast
8:15 PM 53.6 °F 51.4 °F 92% 29.71 in 10.0 mi NW 16.1 mph - N/A   Overcast
8:35 PM 53.1 °F 51.3 °F 94% 29.71 in 5.0 mi NW 15.0 mph 25.3 mph N/A   Overcast
8:55 PM 52.7 °F 51.3 °F 95% 29.71 in 7.0 mi NW 15.0 mph 23.0 mph N/A   Overcast
9:15 PM 52.7 °F 51.1 °F 94% 29.72 in 10.0 mi NW 15.0 mph 26.5 mph N/A   Overcast
9:35 PM 52.7 °F 50.4 °F 92% 29.73 in 10.0 mi NW 13.8 mph 20.7 mph N/A   Mostly Cloudy
9:55 PM 52.7 °F 50.2 °F 91% 29.74 in 10.0 mi WNW 15.0 mph 21.9 mph N/A   Overcast
10:15 PM 52.3 °F 49.8 °F 91% 29.73 in 10.0 mi NW 17.3 mph 23.0 mph N/A   Overcast
10:35 PM 51.8 °F 49.3 °F 91% 29.72 in 10.0 mi NW 20.7 mph 26.5 mph N/A   Overcast
10:55 PM 51.4 °F 49.3 °F 92% 29.71 in 10.0 mi NW 20.7 mph 26.5 mph N/A   Overcast
11:15 PM 51.3 °F 49.1 °F 92% 29.71 in 10.0 mi NW 18.4 mph 26.5 mph N/A   Overcast
11:35 PM 51.1 °F 49.3 °F 94% 29.71 in 10.0 mi NW 18.4 mph 26.5 mph N/A   Overcast
11:55 PM 51.1 °F 49.5 °F 94% 29.71 in 10.0 mi NW 16.1 mph 25.3 mph N/A   Overcast